createdAt,value
2018-05-16T00:01:56.615Z,14.60
2018-05-16T00:04:59.942Z,14.60
2018-05-16T00:08:03.243Z,14.60
2018-05-16T00:11:07.457Z,14.60
2018-05-16T00:14:11.670Z,14.60
2018-05-16T00:17:14.971Z,14.60
2018-05-16T00:20:19.129Z,14.60
2018-05-16T00:23:22.453Z,14.50
2018-05-16T00:26:25.816Z,14.60
2018-05-16T00:29:29.137Z,14.60
2018-05-16T00:32:32.485Z,14.60
2018-05-16T00:35:35.796Z,14.60
2018-05-16T00:38:39.865Z,14.60
2018-05-16T00:41:43.219Z,14.60
2018-05-16T00:44:46.559Z,14.60
2018-05-16T00:47:49.908Z,14.70
2018-05-16T00:51:10.994Z,14.70
2018-05-16T00:54:14.304Z,14.70
2018-05-16T00:57:18.501Z,14.60
2018-05-16T01:00:21.946Z,14.50
2018-05-16T01:03:25.301Z,14.50
2018-05-16T01:06:28.629Z,14.40
2018-05-16T01:09:32.103Z,14.40
2018-05-16T01:12:36.734Z,14.30
2018-05-16T01:15:40.838Z,14.30
2018-05-16T01:18:44.212Z,14.30
2018-05-16T01:21:47.575Z,14.30
2018-05-16T01:24:51.014Z,14.30
2018-05-16T01:27:54.359Z,14.30
2018-05-16T01:30:57.726Z,14.30
2018-05-16T01:34:01.838Z,14.20
2018-05-16T01:37:05.181Z,14.10
2018-05-16T01:40:08.524Z,14.10
2018-05-16T01:43:13.345Z,14.00
2018-05-16T01:46:16.741Z,14.00
2018-05-16T01:49:20.787Z,14.00
2018-05-16T01:52:24.884Z,13.90
2018-05-16T01:55:28.262Z,14.00
2018-05-16T01:58:31.634Z,13.90
2018-05-16T02:01:34.952Z,13.90
2018-05-16T02:04:38.305Z,13.90
2018-05-16T02:07:41.654Z,13.90
2018-05-16T02:10:44.965Z,13.90
2018-05-16T02:13:49.151Z,13.80
2018-05-16T02:16:52.561Z,13.80
2018-05-16T02:19:55.880Z,13.80
2018-05-16T02:22:59.250Z,13.70
2018-05-16T02:26:02.569Z,13.70
2018-05-16T02:29:07.397Z,13.50
2018-05-16T02:32:11.601Z,13.50
2018-05-16T02:35:15.029Z,13.50
2018-05-16T02:38:19.192Z,13.40
2018-05-16T02:41:22.611Z,13.40
2018-05-16T02:44:26.018Z,13.30
2018-05-16T02:47:29.378Z,13.30
2018-05-16T02:50:32.800Z,13.20
2018-05-16T02:53:36.218Z,13.20
2018-05-16T02:56:39.582Z,13.20
2018-05-16T02:59:42.916Z,13.20
2018-05-16T03:02:46.277Z,13.20
2018-05-16T03:05:49.789Z,13.10
2018-05-16T03:08:53.171Z,13.10
2018-05-16T03:11:56.582Z,13.10
2018-05-16T03:14:59.927Z,13.10
2018-05-16T03:18:03.282Z,13.10
2018-05-16T03:21:06.625Z,13.10
2018-05-16T03:24:09.985Z,13.10
2018-05-16T03:27:13.414Z,13.00
2018-05-16T03:30:17.533Z,13.10
2018-05-16T03:33:20.866Z,13.10
2018-05-16T03:36:24.241Z,13.10
2018-05-16T03:39:27.552Z,13.00
2018-05-16T03:42:30.901Z,13.00
2018-05-16T03:45:34.963Z,13.00
2018-05-16T03:48:38.335Z,13.00
2018-05-16T03:51:41.635Z,12.90
2018-05-16T03:54:45.021Z,12.90
2018-05-16T04:01:46.927Z,13.00
2018-05-16T04:04:50.241Z,13.00
2018-05-16T04:07:53.606Z,13.00
2018-05-16T04:10:56.920Z,13.00
2018-05-16T04:14:00.263Z,13.10
2018-05-16T04:17:03.610Z,13.10
2018-05-16T04:20:07.038Z,13.20
2018-05-16T04:23:10.442Z,13.30
2018-05-16T04:26:13.848Z,13.30
2018-05-16T04:29:17.161Z,13.40
2018-05-16T04:32:21.278Z,13.70
2018-05-16T04:35:25.400Z,13.80
2018-05-16T04:38:29.583Z,13.90
2018-05-16T04:41:32.893Z,13.90
2018-05-16T04:44:37.011Z,14.20
2018-05-16T04:47:41.102Z,14.30
2018-05-16T04:50:44.456Z,14.30
2018-05-16T04:53:47.792Z,14.50
2018-05-16T04:56:51.154Z,14.60
2018-05-16T04:59:54.446Z,14.70
2018-05-16T05:02:57.833Z,14.80
2018-05-16T05:06:01.192Z,15.00
2018-05-16T05:09:04.579Z,15.00
2018-05-16T05:12:07.985Z,15.10
2018-05-16T05:15:11.337Z,15.20
2018-05-16T05:18:14.690Z,15.30
2018-05-16T05:21:18.869Z,15.40
2018-05-16T05:24:22.210Z,15.40
2018-05-16T05:27:26.325Z,15.50
2018-05-16T05:30:30.401Z,15.60
2018-05-16T05:33:33.754Z,15.60
2018-05-16T05:36:37.095Z,15.60
2018-05-16T05:39:40.447Z,15.80
2018-05-16T05:42:43.777Z,15.90
2018-05-16T05:45:47.198Z,15.90
2018-05-16T05:48:50.536Z,16.00
2018-05-16T05:51:53.998Z,16.10
2018-05-16T05:54:57.393Z,16.10
2018-05-16T05:58:00.789Z,16.20
2018-05-16T06:01:04.165Z,16.30
2018-05-16T06:04:07.526Z,16.30
2018-05-16T06:07:10.843Z,16.40
2018-05-16T06:10:14.190Z,16.40
2018-05-16T06:13:18.294Z,16.60
2018-05-16T06:16:21.652Z,16.50
2018-05-16T06:19:25.133Z,16.60
2018-05-16T06:22:28.434Z,16.60
2018-05-16T06:25:31.763Z,16.60
2018-05-16T06:28:35.133Z,16.60
2018-05-16T06:31:38.462Z,16.60
2018-05-16T06:34:41.868Z,16.80
2018-05-16T06:37:45.149Z,16.80
2018-05-16T06:40:48.521Z,16.70
2018-05-16T06:43:51.959Z,16.70
2018-05-16T06:46:55.350Z,16.80
2018-05-16T06:49:58.669Z,16.70
2018-05-16T06:53:02.853Z,16.80
2018-05-16T06:56:06.142Z,16.80
2018-05-16T06:59:09.501Z,16.80
2018-05-16T07:02:12.831Z,16.90
2018-05-16T07:05:16.177Z,17.00
2018-05-16T07:08:20.383Z,17.20
2018-05-16T07:11:24.502Z,17.40
2018-05-16T07:14:28.585Z,17.60
2018-05-16T07:17:31.949Z,17.50
2018-05-16T07:20:35.293Z,17.70
2018-05-16T07:23:39.511Z,17.90
2018-05-16T07:26:42.905Z,17.90
2018-05-16T07:29:46.297Z,18.00
2018-05-16T07:32:49.616Z,18.10
2018-05-16T07:35:53.737Z,18.30
2018-05-16T07:38:57.921Z,18.40
2018-05-16T07:42:01.263Z,18.40
2018-05-16T07:45:04.640Z,18.60
2018-05-16T07:48:08.775Z,19.00
2018-05-16T07:51:12.202Z,18.90
2018-05-16T07:54:15.483Z,19.20
2018-05-16T07:57:18.811Z,19.30
2018-05-16T08:00:22.161Z,19.40
2018-05-16T08:03:25.478Z,19.60
2018-05-16T08:06:28.841Z,19.70
2018-05-16T08:09:32.930Z,19.90
2018-05-16T08:12:36.239Z,19.80
2018-05-16T08:15:39.553Z,19.90
2018-05-16T08:18:42.888Z,20.00
2018-05-16T08:21:46.285Z,19.90
2018-05-16T08:24:50.370Z,19.90
2018-05-16T08:27:53.720Z,20.00
2018-05-16T08:30:57.098Z,20.00
2018-05-16T08:34:00.526Z,20.10
2018-05-16T08:37:03.914Z,20.20
2018-05-16T08:40:07.237Z,20.30
2018-05-16T08:43:11.365Z,20.40
2018-05-16T08:46:14.678Z,20.40
2018-05-16T08:49:18.005Z,20.40
2018-05-16T08:52:21.323Z,20.40
2018-05-16T08:55:24.657Z,20.50
2018-05-16T08:58:28.089Z,20.40
2018-05-16T09:01:31.402Z,20.40
2018-05-16T09:04:35.526Z,20.50
2018-05-16T09:07:38.847Z,20.50
2018-05-16T09:10:42.183Z,20.50
2018-05-16T09:13:45.674Z,20.60
2018-05-16T09:16:48.961Z,20.60
2018-05-16T09:19:52.347Z,20.50
2018-05-16T09:22:55.680Z,20.60
2018-05-16T09:25:58.996Z,20.60
2018-05-16T09:29:02.338Z,20.50
2018-05-16T09:32:05.664Z,20.50
2018-05-16T09:35:09.001Z,20.60
2018-05-16T09:38:13.192Z,20.80
2018-05-16T09:41:16.575Z,20.70
2018-05-16T09:44:19.896Z,20.90
2018-05-16T09:47:23.261Z,20.90
2018-05-16T09:50:27.484Z,20.90
2018-05-16T09:53:30.811Z,21.00
2018-05-16T09:56:34.135Z,21.00
2018-05-16T09:59:37.462Z,21.00
2018-05-16T10:02:40.789Z,21.10
2018-05-16T10:05:44.133Z,21.10
2018-05-16T10:08:47.457Z,21.10
2018-05-16T10:11:50.790Z,21.20
2018-05-16T10:14:54.114Z,21.20
2018-05-16T10:17:57.438Z,21.30
2018-05-16T10:21:00.832Z,21.30
2018-05-16T10:24:04.453Z,21.40
2018-05-16T10:27:07.908Z,21.50
2018-05-16T10:30:11.207Z,21.50
2018-05-16T10:33:14.566Z,21.70
2018-05-16T10:36:17.895Z,21.80
2018-05-16T10:39:21.217Z,21.80
2018-05-16T10:42:24.559Z,21.90
2018-05-16T10:45:27.847Z,21.90
2018-05-16T10:48:32.005Z,22.30
2018-05-16T10:51:35.623Z,22.20
2018-05-16T10:54:39.514Z,22.50
2018-05-16T10:57:42.845Z,22.40
2018-05-16T11:00:46.183Z,22.50
2018-05-16T11:03:50.284Z,22.70
2018-05-16T11:06:54.378Z,23.00
2018-05-16T11:09:57.717Z,23.00
2018-05-16T11:13:01.770Z,23.80
2018-05-16T11:16:05.143Z,23.70
2018-05-16T11:19:08.487Z,24.00
2018-05-16T11:22:11.796Z,24.20
2018-05-16T11:25:15.222Z,24.40
2018-05-16T11:28:18.585Z,24.40
2018-05-16T11:31:21.991Z,24.30
2018-05-16T11:34:25.322Z,24.20
2018-05-16T11:37:28.651Z,24.10
2018-05-16T11:40:32.052Z,24.20
2018-05-16T11:43:35.494Z,24.20
2018-05-16T11:46:39.577Z,24.30
2018-05-16T11:49:42.978Z,24.30
2018-05-16T11:52:46.301Z,24.50
2018-05-16T11:55:50.505Z,25.00
2018-05-16T11:58:54.688Z,25.10
2018-05-16T12:01:58.002Z,25.00
2018-05-16T12:05:01.475Z,25.00
2018-05-16T12:08:05.537Z,25.00
2018-05-16T12:11:09.717Z,25.20
2018-05-16T12:14:12.996Z,25.10
2018-05-16T12:17:16.301Z,25.30
2018-05-16T12:20:19.772Z,25.10
2018-05-16T12:23:23.088Z,24.90
2018-05-16T12:26:26.497Z,24.70
2018-05-16T12:29:30.855Z,24.40
2018-05-16T12:32:35.049Z,24.40
2018-05-16T12:35:38.438Z,24.30
2018-05-16T12:38:41.855Z,24.40
2018-05-16T12:41:45.184Z,24.40
2018-05-16T12:44:48.531Z,24.60
2018-05-16T12:47:51.934Z,24.70
2018-05-16T12:50:55.338Z,24.80
2018-05-16T12:54:00.262Z,24.80
2018-05-16T12:57:03.670Z,24.80
2018-05-16T13:00:07.006Z,24.90
2018-05-16T13:03:10.352Z,25.00
2018-05-16T13:06:13.699Z,25.00
2018-05-16T13:09:17.105Z,24.80
2018-05-16T13:12:20.441Z,24.80
2018-05-16T13:15:24.536Z,25.00
2018-05-16T13:18:27.945Z,24.80
2018-05-16T13:21:31.310Z,24.60
2018-05-16T13:24:35.362Z,24.10
2018-05-16T13:27:38.687Z,24.10
2018-05-16T13:30:42.804Z,24.30
2018-05-16T13:33:46.979Z,24.50
2018-05-16T13:36:50.313Z,24.60
2018-05-16T13:39:54.500Z,25.00
2018-05-16T13:42:58.565Z,25.00
2018-05-16T13:46:02.061Z,25.30
2018-05-16T13:49:05.392Z,25.50
2018-05-16T13:52:08.714Z,25.60
2018-05-16T13:55:12.027Z,25.50
2018-05-16T13:58:15.368Z,25.30
2018-05-16T14:01:18.668Z,25.20
2018-05-16T14:04:22.030Z,25.10
2018-05-16T14:07:25.347Z,25.00
2018-05-16T14:10:28.790Z,25.10
2018-05-16T14:13:32.149Z,25.10
2018-05-16T14:16:35.478Z,25.30
2018-05-16T14:19:38.865Z,25.50
2018-05-16T14:22:42.184Z,25.80
2018-05-16T14:25:45.518Z,26.00
2018-05-16T14:28:48.872Z,26.20
2018-05-16T14:31:52.204Z,26.10
2018-05-16T14:34:55.538Z,26.20
2018-05-16T14:37:58.871Z,26.10
2018-05-16T14:41:02.990Z,26.10
2018-05-16T14:44:07.185Z,26.20
2018-05-16T14:47:10.529Z,26.10
2018-05-16T14:50:13.878Z,26.20
2018-05-16T14:53:17.200Z,26.20
2018-05-16T14:56:21.315Z,26.40
2018-05-16T14:59:25.501Z,26.40
2018-05-16T15:02:28.801Z,26.40
2018-05-16T15:05:33.023Z,26.50
2018-05-16T15:08:36.418Z,26.50
2018-05-16T15:11:39.763Z,26.70
2018-05-16T15:14:43.095Z,26.80
2018-05-16T15:17:46.453Z,27.00
2018-05-16T15:20:49.820Z,27.30
2018-05-16T15:23:53.897Z,27.70
2018-05-16T15:26:57.189Z,27.70
2018-05-16T15:30:00.596Z,27.80
2018-05-16T15:33:04.004Z,27.90
2018-05-16T15:36:08.068Z,27.50
2018-05-16T15:39:11.402Z,27.50
2018-05-16T15:42:14.801Z,27.40
2018-05-16T15:45:18.169Z,27.30
2018-05-16T15:48:21.497Z,27.10
2018-05-16T15:51:24.852Z,26.90
2018-05-16T15:54:28.309Z,26.90
2018-05-16T15:57:31.700Z,26.70
2018-05-16T16:00:35.052Z,26.60
2018-05-16T16:03:38.347Z,26.50
2018-05-16T16:06:41.741Z,26.40
2018-05-16T16:09:45.039Z,26.40
2018-05-16T16:12:48.398Z,26.40
2018-05-16T16:15:52.550Z,26.40
2018-05-16T16:18:55.890Z,26.30
2018-05-16T16:21:59.247Z,26.20
2018-05-16T16:25:02.560Z,26.10
2018-05-16T16:28:05.904Z,26.10
2018-05-16T16:31:10.000Z,25.80
2018-05-16T16:34:13.337Z,25.80
2018-05-16T16:37:16.788Z,25.80
2018-05-16T16:40:20.187Z,25.90
2018-05-16T16:43:23.505Z,25.90
2018-05-16T16:46:27.634Z,26.10
2018-05-16T16:49:31.011Z,26.10
2018-05-16T16:52:35.119Z,25.90
2018-05-16T16:55:39.239Z,26.00
2018-05-16T16:58:43.332Z,25.80
2018-05-16T17:01:46.687Z,25.80
2018-05-16T17:04:50.084Z,25.80
2018-05-16T17:07:53.446Z,25.80
2018-05-16T17:10:57.634Z,25.60
2018-05-16T17:14:01.020Z,25.60
2018-05-16T17:17:04.365Z,25.10
2018-05-16T17:20:08.484Z,23.40
2018-05-16T17:23:11.824Z,23.40
2018-05-16T17:26:15.171Z,22.80
2018-05-16T17:29:19.245Z,21.60
2018-05-16T17:32:22.603Z,21.60
2018-05-16T17:35:25.960Z,21.30
2018-05-16T17:38:30.072Z,20.70
2018-05-16T17:41:33.447Z,20.70
2018-05-16T17:44:36.779Z,20.50
2018-05-16T17:47:40.882Z,20.10
2018-05-16T17:50:44.973Z,19.90
2018-05-16T17:53:48.455Z,20.00
2018-05-16T17:56:52.618Z,19.60
2018-05-16T17:59:56.857Z,19.40
2018-05-16T18:03:00.183Z,19.40
2018-05-16T18:06:03.559Z,19.20
2018-05-16T18:09:06.898Z,19.10
2018-05-16T18:12:10.249Z,19.00
2018-05-16T18:15:31.695Z,18.90
2018-05-16T18:18:35.113Z,18.70
2018-05-16T18:21:38.458Z,18.60
2018-05-16T18:24:41.789Z,18.50
2018-05-16T18:27:45.132Z,18.30
2018-05-16T18:30:49.243Z,18.10
2018-05-16T18:33:53.424Z,18.00
2018-05-16T18:36:56.769Z,18.00
2018-05-16T18:40:00.086Z,17.80
2018-05-16T18:43:03.528Z,17.60
2018-05-16T18:46:07.220Z,17.50
2018-05-16T18:49:10.700Z,17.40
2018-05-16T18:52:14.129Z,17.20
2018-05-16T18:55:17.474Z,17.10
2018-05-16T18:58:20.830Z,17.00
2018-05-16T19:01:24.190Z,16.80
2018-05-16T19:04:27.626Z,16.70
2018-05-16T19:07:31.000Z,16.50
2018-05-16T19:10:34.361Z,16.50
2018-05-16T19:13:37.686Z,16.30
2018-05-16T19:16:41.105Z,16.20
2018-05-16T19:19:44.520Z,16.10
2018-05-16T19:22:47.861Z,15.90
2018-05-16T19:25:51.153Z,15.90
2018-05-16T19:28:54.517Z,15.80
2018-05-16T19:31:58.629Z,15.60
2018-05-16T19:35:02.867Z,15.50
2018-05-16T19:38:06.220Z,15.40
2018-05-16T19:41:09.552Z,15.40
2018-05-16T19:44:13.643Z,15.10
2018-05-16T19:47:17.035Z,15.10
2018-05-16T19:50:20.414Z,14.90
2018-05-16T19:53:23.834Z,14.80
2018-05-16T19:56:27.216Z,14.70
2018-05-16T19:59:30.619Z,14.60
2018-05-16T20:02:33.970Z,14.60
2018-05-16T20:05:37.329Z,14.50
2018-05-16T20:08:40.661Z,14.30
2018-05-16T20:11:44.044Z,14.20
2018-05-16T20:14:47.448Z,14.00
2018-05-16T20:17:51.557Z,13.80
2018-05-16T20:20:54.887Z,13.70
2018-05-16T20:23:58.172Z,13.60
2018-05-16T20:27:01.618Z,13.50
2018-05-16T20:30:05.809Z,13.30
2018-05-16T20:33:09.157Z,13.30
2018-05-16T20:36:13.805Z,13.10
2018-05-16T20:39:17.153Z,13.00
2018-05-16T20:42:20.726Z,12.90
2018-05-16T20:45:24.124Z,12.80
2018-05-16T20:48:27.386Z,12.70
2018-05-16T20:51:30.678Z,12.50
2018-05-16T20:54:34.049Z,12.40
2018-05-16T20:57:37.429Z,12.40
2018-05-16T21:00:40.768Z,12.30
2018-05-16T21:03:44.111Z,12.20
2018-05-16T21:06:47.463Z,12.10
2018-05-16T21:09:50.844Z,11.90
2018-05-16T21:12:55.042Z,11.80
2018-05-16T21:15:58.438Z,11.80
2018-05-16T21:19:02.057Z,11.70
2018-05-16T21:22:06.521Z,11.70
2018-05-16T21:25:09.987Z,11.60
2018-05-16T21:28:13.506Z,11.50
2018-05-16T21:31:17.043Z,11.40
2018-05-16T21:34:20.598Z,11.40
2018-05-16T21:37:24.361Z,11.40
2018-05-16T21:40:27.908Z,11.30
2018-05-16T21:43:31.713Z,11.30
2018-05-16T21:46:35.062Z,11.20
2018-05-16T21:49:38.647Z,11.10
2018-05-16T21:52:42.262Z,11.00
2018-05-16T21:55:46.073Z,10.90
2018-05-16T21:58:49.446Z,10.90
2018-05-16T22:01:52.781Z,10.80
2018-05-16T22:04:56.111Z,10.80
2018-05-16T22:08:00.257Z,10.70
2018-05-16T22:11:04.033Z,10.60
2018-05-16T22:14:07.381Z,10.60
2018-05-16T22:17:10.731Z,10.50
2018-05-16T22:20:14.027Z,10.40
2018-05-16T22:23:17.391Z,10.30
2018-05-16T22:26:21.482Z,10.40
2018-05-16T22:29:25.429Z,10.30
2018-05-16T22:32:35.061Z,10.40
2018-05-16T22:35:44.775Z,10.30
2018-05-16T22:38:53.631Z,10.30
2018-05-16T22:42:03.331Z,10.40
2018-05-16T22:48:47.402Z,10.40
2018-05-16T22:51:50.812Z,10.40
2018-05-16T22:54:54.153Z,10.40
2018-05-16T22:57:58.277Z,10.40
2018-05-16T23:01:01.572Z,10.40
2018-05-16T23:04:04.933Z,10.40
2018-05-16T23:07:08.265Z,10.30
2018-05-16T23:10:11.622Z,10.20
2018-05-16T23:13:14.977Z,10.20
2018-05-16T23:16:18.315Z,10.20
2018-05-16T23:19:21.645Z,10.20
2018-05-16T23:22:25.823Z,10.20
2018-05-16T23:25:29.126Z,10.20
2018-05-16T23:28:33.330Z,10.20
2018-05-16T23:31:36.734Z,10.10
2018-05-16T23:34:40.141Z,10.10
2018-05-16T23:37:43.537Z,10.10
2018-05-16T23:40:46.906Z,10.10
2018-05-16T23:43:50.247Z,10.10
2018-05-16T23:46:54.458Z,10.00
2018-05-16T23:49:58.563Z,10.00
2018-05-16T23:53:01.982Z,9.90
2018-05-16T23:56:06.062Z,9.90
2018-05-16T23:59:09.402Z,9.90
